Time;durP1;ratioP1;P1;durP2;ratioP2;P2;SDS_P1;SDS_P2;PMS_P1;PMS_P2;Temp;Humidity;BMP_temperature;BMP_pressure;BME280_temperature;BME280_humidity;BME280_pressure;Samples;Min_cycle;Max_cycle;Signal;HPM_P1;HPM_P2
2023/09/25 00:01:11;;;;;;;3.27;1.93;;;11.50;99.90;;;;;;5072858;28;20197;-75
2023/09/25 00:03:36;;;;;;;1.70;1.60;;;11.50;99.90;;;;;;5072787;28;20664;-75
2023/09/25 00:06:02;;;;;;;2.17;1.97;;;11.60;99.90;;;;;;5072411;28;20269;-75
2023/09/25 00:08:28;;;;;;;2.17;1.97;;;11.60;99.90;;;;;;5072721;28;20165;-75
2023/09/25 00:10:54;;;;;;;2.27;2.00;;;11.70;99.90;;;;;;5072480;28;20448;-76
2023/09/25 00:13:19;;;;;;;3.53;1.80;;;11.70;99.90;;;;;;5054742;28;20163;-75
2023/09/25 00:15:46;;;;;;;2.93;2.10;;;11.60;99.90;;;;;;5072022;28;20256;-75
2023/09/25 00:18:16;;;;;;;2.20;1.90;;;11.50;99.90;;;;;;5072776;28;20637;-76
2023/09/25 00:20:42;;;;;;;1.63;1.40;;;11.40;99.90;;;;;;5078831;28;20450;-75
2023/09/25 00:23:07;;;;;;;2.83;2.20;;;11.40;99.90;;;;;;5077936;28;20443;-75
2023/09/25 00:25:33;;;;;;;1.80;1.70;;;11.40;99.90;;;;;;5074978;28;20190;-75
2023/09/25 00:27:59;;;;;;;2.00;1.70;;;11.40;99.90;;;;;;5072334;28;20174;-75
2023/09/25 00:30:26;;;;;;;3.10;1.63;;;11.40;99.90;;;;;;5072191;28;20193;-76
2023/09/25 00:32:51;;;;;;;2.87;1.97;;;11.30;99.90;;;;;;5072319;28;20408;-76
2023/09/25 00:35:19;;;;;;;2.30;1.93;;;11.30;99.90;;;;;;5071957;28;20536;-76
2023/09/25 00:37:45;;;;;;;2.60;1.70;;;11.30;99.90;;;;;;5072191;28;20532;-75
2023/09/25 00:40:13;;;;;;;3.50;1.60;;;11.30;99.90;;;;;;5072197;28;20427;-77
2023/09/25 00:42:46;;;;;;;2.30;1.90;;;11.30;99.90;;;;;;5071462;28;20403;-76
2023/09/25 00:45:11;;;;;;;6.87;2.67;;;11.30;99.90;;;;;;5053497;28;20814;-76
2023/09/25 00:47:38;;;;;;;1.73;1.50;;;11.40;99.90;;;;;;5072372;28;20409;-76
2023/09/25 00:50:06;;;;;;;2.00;1.80;;;11.30;99.90;;;;;;5068779;28;20178;-77
2023/09/25 00:52:36;;;;;;;2.53;1.90;;;11.30;99.90;;;;;;5069900;28;20412;-76
2023/09/25 00:55:03;;;;;;;4.90;2.30;;;11.20;99.90;;;;;;5073753;28;20452;-77
2023/09/25 00:57:29;;;;;;;2.20;2.03;;;11.20;99.90;;;;;;5073016;28;20447;-76
2023/09/25 00:59:55;;;;;;;2.40;1.90;;;11.10;99.90;;;;;;5054121;28;20423;-76
2023/09/25 01:02:22;;;;;;;2.23;2.00;;;11.10;99.90;;;;;;5054755;28;20408;-77
2023/09/25 01:04:48;;;;;;;2.10;1.90;;;11.10;99.90;;;;;;5054280;28;20436;-76
2023/09/25 01:07:16;;;;;;;1.70;1.60;;;11.10;99.90;;;;;;5071970;28;20393;-76
2023/09/25 01:09:42;;;;;;;2.23;2.03;;;11.20;99.90;;;;;;5071975;28;20421;-75
2023/09/25 01:12:07;;;;;;;3.07;2.27;;;11.20;99.90;;;;;;5071635;28;20448;-76
2023/09/25 01:14:33;;;;;;;2.53;1.70;;;11.20;99.90;;;;;;5071623;28;20182;-76
2023/09/25 01:16:59;;;;;;;2.63;2.00;;;11.20;99.90;;;;;;5072184;28;20162;-77
2023/09/25 01:19:24;;;;;;;3.43;2.23;;;11.10;99.90;;;;;;5069992;28;20209;-74
2023/09/25 01:21:50;;;;;;;5.20;1.80;;;11.10;99.90;;;;;;5053617;28;20232;-76
2023/09/25 01:24:15;;;;;;;2.53;2.33;;;11.10;99.90;;;;;;5080187;28;20615;-77
2023/09/25 01:26:41;;;;;;;3.67;2.57;;;11.10;99.90;;;;;;5053934;28;20249;-75
2023/09/25 01:29:07;;;;;;;5.13;3.30;;;11.10;99.90;;;;;;5053754;28;20552;-76
2023/09/25 01:31:32;;;;;;;5.73;3.50;;;11.10;99.90;;;;;;5071820;28;20273;-76
2023/09/25 01:33:58;;;;;;;3.47;2.67;;;11.10;99.90;;;;;;5053841;28;20641;-77
2023/09/25 01:36:23;;;;;;;3.10;2.90;;;11.10;99.90;;;;;;5053502;28;20641;-75
2023/09/25 01:38:49;;;;;;;3.20;2.90;;;11.20;99.90;;;;;;5071484;28;20189;-75
2023/09/25 01:41:15;;;;;;;4.27;2.00;;;11.20;99.90;;;;;;5071556;28;20212;-75
2023/09/25 01:43:43;;;;;;;3.03;2.40;;;11.20;99.90;;;;;;5071437;28;20718;-75
2023/09/25 01:46:09;;;;;;;2.30;2.10;;;11.20;99.90;;;;;;5071155;28;20190;-74
2023/09/25 01:48:36;;;;;;;2.40;2.07;;;11.20;99.90;;;;;;5071387;28;20412;-74
2023/09/25 01:51:09;;;;;;;2.73;2.50;;;11.30;99.90;;;;;;5071212;28;20217;-77
2023/09/25 01:53:35;;;;;;;3.53;2.30;;;11.20;99.90;;;;;;5053264;28;20432;-74
2023/09/25 01:56:09;;;;;;;2.53;2.10;;;11.20;99.90;;;;;;5052954;28;20436;-74
2023/09/25 01:58:35;;;;;;;7.00;2.50;;;11.20;99.90;;;;;;5053391;28;20411;-75
2023/09/25 02:01:00;;;;;;;7.13;2.70;;;11.20;99.90;;;;;;5071356;28;20403;-74
2023/09/25 02:03:26;;;;;;;3.17;2.63;;;11.20;99.90;;;;;;5071460;28;20173;-75
2023/09/25 02:05:56;;;;;;;2.70;2.20;;;11.20;99.90;;;;;;5070973;28;20190;-75
2023/09/25 02:08:21;;;;;;;2.30;2.10;;;11.20;99.90;;;;;;5054705;28;20171;-74
2023/09/25 02:10:47;;;;;;;3.57;2.10;;;11.20;99.90;;;;;;5074919;28;20818;-75
2023/09/25 02:13:12;;;;;;;2.20;2.00;;;11.20;99.90;;;;;;5074533;28;20166;-76
2023/09/25 02:15:38;;;;;;;2.40;2.20;;;11.20;99.90;;;;;;5075045;28;20186;-75
2023/09/25 02:18:05;;;;;;;2.27;2.10;;;11.20;99.90;;;;;;5074887;28;20167;-76
2023/09/25 02:20:31;;;;;;;3.00;2.40;;;11.20;99.90;;;;;;5069777;28;20196;-76
2023/09/25 02:22:57;;;;;;;9.60;4.80;;;11.10;99.90;;;;;;5085605;28;20418;-77
2023/09/25 02:25:22;;;;;;;3.93;3.53;;;11.10;99.90;;;;;;5087644;28;20244;-75
2023/09/25 02:27:48;;;;;;;3.97;2.57;;;11.10;99.90;;;;;;5074507;28;20253;-74
2023/09/25 02:30:14;;;;;;;3.57;2.20;;;11.10;99.90;;;;;;5074464;28;20165;-75
2023/09/25 02:32:41;;;;;;;2.07;1.80;;;11.10;99.90;;;;;;5074444;28;20177;-75
2023/09/25 02:35:07;;;;;;;1.90;1.60;;;11.10;99.90;;;;;;5056078;28;20425;-76
2023/09/25 02:37:33;;;;;;;2.23;2.03;;;11.10;99.90;;;;;;5074380;28;20396;-75
2023/09/25 02:39:59;;;;;;;3.40;2.10;;;11.00;99.90;;;;;;5056311;28;20204;-75
2023/09/25 02:42:24;;;;;;;1.90;1.73;;;11.00;99.90;;;;;;5074217;28;20412;-76
2023/09/25 02:44:50;;;;;;;5.80;2.10;;;10.90;99.90;;;;;;5074135;28;20193;-75
2023/09/25 02:47:15;;;;;;;2.53;2.33;;;10.90;99.90;;;;;;5073940;28;20166;-75
2023/09/25 02:49:41;;;;;;;2.40;2.20;;;10.90;99.90;;;;;;5074165;28;20879;-74
2023/09/25 02:52:07;;;;;;;2.43;1.73;;;10.80;99.90;;;;;;5074068;28;20198;-75
2023/09/25 02:54:33;;;;;;;2.00;1.80;;;10.80;99.90;;;;;;5073914;28;20731;-75
2023/09/25 02:56:58;;;;;;;2.20;1.97;;;10.80;99.90;;;;;;5055993;28;20409;-76
2023/09/25 02:59:24;;;;;;;2.43;2.00;;;10.80;99.90;;;;;;5074408;28;20163;-77
2023/09/25 03:01:49;;;;;;;2.90;2.57;;;10.70;99.90;;;;;;5074375;28;20174;-76
2023/09/25 03:04:15;;;;;;;2.30;2.10;;;10.60;99.90;;;;;;5074184;28;20236;-77
2023/09/25 03:06:40;;;;;;;1.77;1.67;;;10.60;99.90;;;;;;5074315;28;20174;-77
2023/09/25 03:09:06;;;;;;;2.30;1.80;;;10.60;99.90;;;;;;5056363;28;20817;-76
2023/09/25 03:11:32;;;;;;;2.43;2.23;;;10.60;99.90;;;;;;5056532;28;20202;-77
2023/09/25 03:13:57;;;;;;;2.20;2.00;;;10.50;99.90;;;;;;5055769;28;20162;-75
2023/09/25 03:16:23;;;;;;;2.80;2.00;;;10.50;99.90;;;;;;5073443;28;20193;-75
2023/09/25 03:18:49;;;;;;;4.33;2.20;;;10.50;99.90;;;;;;5073372;28;20162;-75
2023/09/25 03:21:16;;;;;;;3.77;2.10;;;10.40;99.90;;;;;;5079810;28;20420;-75
2023/09/25 03:23:41;;;;;;;5.23;2.77;;;10.40;99.90;;;;;;5090490;28;20412;-74
2023/09/25 03:26:14;;;;;;;4.87;4.10;;;10.40;99.90;;;;;;5080945;28;20911;-75
2023/09/25 03:28:40;;;;;;;24.80;12.27;;;10.30;99.90;;;;;;5074020;28;20169;-76
2023/09/25 03:31:06;;;;;;;11.20;3.93;;;10.30;99.90;;;;;;5055587;28;20452;-76
2023/09/25 03:33:31;;;;;;;2.93;2.70;;;10.30;99.90;;;;;;5074264;28;20154;-76
2023/09/25 03:35:57;;;;;;;3.17;2.50;;;10.20;99.90;;;;;;5073484;28;20263;-75
2023/09/25 03:38:23;;;;;;;5.80;3.63;;;10.20;99.90;;;;;;5073516;28;20787;-76
2023/09/25 03:40:49;;;;;;;2.03;1.87;;;10.20;99.90;;;;;;5055387;28;20172;-77
2023/09/25 03:43:14;;;;;;;6.13;2.50;;;10.20;99.90;;;;;;5055459;28;20170;-76
2023/09/25 03:45:40;;;;;;;3.93;3.13;;;10.20;99.90;;;;;;5055003;28;20194;-76
2023/09/25 03:48:06;;;;;;;4.90;3.40;;;10.20;99.90;;;;;;5073330;28;20319;-76
2023/09/25 03:50:31;;;;;;;2.87;2.57;;;10.10;99.90;;;;;;5073190;28;20640;-75
2023/09/25 03:53:00;;;;;;;2.67;2.47;;;10.10;99.90;;;;;;5073200;28;20474;-76
2023/09/25 03:55:25;;;;;;;2.17;1.67;;;10.10;99.90;;;;;;5072775;28;20183;-76
2023/09/25 03:57:51;;;;;;;2.87;2.37;;;10.10;99.90;;;;;;5073185;28;20412;-76
2023/09/25 04:00:16;;;;;;;3.10;2.67;;;10.10;99.90;;;;;;5055524;28;20173;-77
2023/09/25 04:02:42;;;;;;;3.43;2.50;;;10.00;99.90;;;;;;5056824;28;20664;-77
2023/09/25 04:05:09;;;;;;;3.00;2.00;;;10.00;99.90;;;;;;5073128;28;20688;-76
2023/09/25 04:07:34;;;;;;;2.83;2.27;;;10.00;99.90;;;;;;5073200;28;20159;-76
2023/09/25 04:10:02;;;;;;;2.47;2.27;;;10.00;99.90;;;;;;5072950;28;20397;-75
2023/09/25 04:12:27;;;;;;;4.23;2.37;;;10.00;99.90;;;;;;5073803;28;20166;-76
2023/09/25 04:14:53;;;;;;;3.80;2.27;;;10.00;99.90;;;;;;5054998;28;20487;-76
2023/09/25 04:17:20;;;;;;;4.03;1.80;;;10.00;99.90;;;;;;5054881;28;20178;-77
2023/09/25 04:19:49;;;;;;;2.23;2.03;;;10.00;99.90;;;;;;5055401;28;20273;-75
2023/09/25 04:22:14;;;;;;;2.70;2.00;;;10.00;99.90;;;;;;5072254;28;20504;-76
2023/09/25 04:24:40;;;;;;;2.03;1.83;;;10.00;99.90;;;;;;5084480;28;20539;-76
2023/09/25 04:27:05;;;;;;;4.67;2.40;;;10.00;99.90;;;;;;5074512;28;20196;-77
2023/09/25 04:29:31;;;;;;;2.70;2.40;;;10.00;99.90;;;;;;5092754;28;20169;-77
2023/09/25 04:31:57;;;;;;;5.03;2.20;;;10.00;99.90;;;;;;5073786;28;20215;-77
2023/09/25 04:34:23;;;;;;;2.77;2.27;;;9.90;99.90;;;;;;5089678;28;20217;-77
2023/09/25 04:36:49;;;;;;;5.67;4.90;;;9.90;99.90;;;;;;5091161;28;20404;-77
2023/09/25 04:39:20;;;;;;;11.40;7.77;;;9.90;99.90;;;;;;5072839;28;20409;-76
2023/09/25 04:41:46;;;;;;;4.67;4.13;;;9.90;99.90;;;;;;5080670;28;20176;-77
2023/09/25 04:44:12;;;;;;;2.50;2.27;;;9.90;99.90;;;;;;5063248;28;20412;-77
2023/09/25 04:46:37;;;;;;;2.70;2.10;;;9.90;99.90;;;;;;5094217;28;20476;-77
2023/09/25 04:49:06;;;;;;;2.20;2.00;;;9.90;99.90;;;;;;5074935;28;20644;-76
2023/09/25 04:51:32;;;;;;;7.40;2.57;;;10.00;99.90;;;;;;5056147;28;20271;-77
2023/09/25 04:53:59;;;;;;;3.20;2.03;;;9.90;99.90;;;;;;5074122;28;20431;-77
2023/09/25 04:56:27;;;;;;;2.80;2.23;;;10.00;99.90;;;;;;5073862;28;20405;-77
2023/09/25 04:58:53;;;;;;;2.40;2.00;;;10.00;99.90;;;;;;5074219;28;20401;-77
2023/09/25 05:01:19;;;;;;;2.00;1.80;;;10.00;99.90;;;;;;5073903;28;20974;-77
2023/09/25 05:03:45;;;;;;;3.40;2.57;;;10.00;99.90;;;;;;5073933;28;20447;-78
2023/09/25 05:06:11;;;;;;;5.50;2.70;;;10.00;99.90;;;;;;5072948;28;20191;-76
2023/09/25 05:08:38;;;;;;;2.80;2.33;;;10.00;99.90;;;;;;5054715;28;20172;-76
2023/09/25 05:11:05;;;;;;;4.73;2.30;;;10.00;99.90;;;;;;5085203;28;20456;-76
2023/09/25 05:13:31;;;;;;;3.27;2.10;;;10.00;99.90;;;;;;5085787;28;20417;-77
2023/09/25 05:15:57;;;;;;;3.70;2.47;;;10.00;99.90;;;;;;5071735;28;20429;-75
2023/09/25 05:18:22;;;;;;;3.87;2.37;;;10.00;99.90;;;;;;5072468;28;20953;-76
2023/09/25 05:20:48;;;;;;;5.00;2.33;;;10.00;99.90;;;;;;5082165;28;20186;-76
2023/09/25 05:23:13;;;;;;;5.93;2.00;;;10.00;99.90;;;;;;5087793;28;20170;-76
2023/09/25 05:25:39;;;;;;;2.20;2.00;;;10.10;99.90;;;;;;5077214;28;20202;-76
2023/09/25 05:28:05;;;;;;;2.67;1.90;;;10.10;99.90;;;;;;5080007;28;20767;-76
2023/09/25 05:30:30;;;;;;;5.23;2.60;;;10.10;99.90;;;;;;5073192;28;20197;-77
2023/09/25 05:32:56;;;;;;;2.40;2.20;;;10.10;99.90;;;;;;5075129;28;20814;-77
2023/09/25 05:35:22;;;;;;;2.27;2.03;;;10.00;99.90;;;;;;5071639;28;20652;-77
2023/09/25 05:37:48;;;;;;;3.13;2.83;;;10.00;99.90;;;;;;5070550;28;20170;-77
2023/09/25 05:40:15;;;;;;;2.67;2.47;;;10.00;99.90;;;;;;5053839;28;20788;-77
2023/09/25 05:42:42;;;;;;;2.97;2.63;;;10.10;99.90;;;;;;5073410;28;20408;-77
2023/09/25 05:45:09;;;;;;;3.40;2.87;;;10.10;99.90;;;;;;5075429;28;20507;-77
2023/09/25 05:47:35;;;;;;;4.77;3.03;;;10.20;99.90;;;;;;5057683;28;20415;-77
2023/09/25 05:50:02;;;;;;;8.10;2.90;;;10.20;99.90;;;;;;5076090;28;20404;-77
2023/09/25 05:52:28;;;;;;;2.57;2.40;;;10.30;99.90;;;;;;5057696;28;20178;-77
2023/09/25 05:54:54;;;;;;;3.43;2.77;;;10.30;99.90;;;;;;5074899;28;20479;-76
2023/09/25 05:57:19;;;;;;;3.33;2.80;;;10.40;99.90;;;;;;5074948;28;20397;-76
2023/09/25 05:59:45;;;;;;;5.50;3.33;;;10.50;99.90;;;;;;5075024;28;20191;-76
2023/09/25 06:02:11;;;;;;;4.53;3.23;;;10.60;99.90;;;;;;5075051;28;20208;-76
2023/09/25 06:04:37;;;;;;;3.33;3.10;;;10.60;99.90;;;;;;5075000;28;20742;-76
2023/09/25 06:07:06;;;;;;;3.80;3.03;;;10.70;99.90;;;;;;5074867;28;20396;-76
2023/09/25 06:09:32;;;;;;;3.30;2.80;;;10.70;99.90;;;;;;5074897;28;20411;-76
2023/09/25 06:11:58;;;;;;;3.40;2.90;;;10.90;99.90;;;;;;5056868;28;20448;-75
2023/09/25 06:14:24;;;;;;;3.80;2.80;;;11.00;99.90;;;;;;5074776;28;20424;-76
2023/09/25 06:16:51;;;;;;;4.70;2.90;;;11.10;99.90;;;;;;5056757;28;20541;-75
2023/09/25 06:19:18;;;;;;;3.87;3.10;;;11.10;99.90;;;;;;5074778;28;20554;-75
2023/09/25 06:21:44;;;;;;;2.70;2.50;;;11.30;99.90;;;;;;5062148;28;20419;-75
2023/09/25 06:24:12;;;;;;;5.40;3.00;;;11.50;99.90;;;;;;5062088;28;20412;-76
2023/09/25 06:26:39;;;;;;;2.90;2.70;;;11.70;99.90;;;;;;5082676;28;21319;-75
2023/09/25 06:29:09;;;;;;;4.07;3.00;;;11.80;99.90;;;;;;5060432;28;20424;-76
2023/09/25 06:31:36;;;;;;;2.60;2.30;;;11.90;99.90;;;;;;5074354;28;20950;-75
2023/09/25 06:34:05;;;;;;;2.70;2.50;;;12.10;99.90;;;;;;5080995;28;20492;-75
2023/09/25 06:36:31;;;;;;;3.17;2.87;;;12.20;99.90;;;;;;5079832;28;20409;-75
2023/09/25 06:38:57;;;;;;;3.03;2.73;;;12.30;99.90;;;;;;5078859;28;20412;-76
2023/09/25 06:41:23;;;;;;;2.87;2.67;;;12.50;99.90;;;;;;5081259;28;20781;-75
2023/09/25 06:43:48;;;;;;;4.33;3.00;;;12.60;99.90;;;;;;5077489;28;20403;-75
2023/09/25 06:46:14;;;;;;;8.60;3.27;;;12.70;99.90;;;;;;5082373;28;20255;-76
2023/09/25 06:48:40;;;;;;;7.83;4.13;;;12.80;99.90;;;;;;5074302;28;20181;-75
2023/09/25 06:51:06;;;;;;;7.10;3.27;;;12.80;99.90;;;;;;5074829;28;20194;-74
2023/09/25 06:53:31;;;;;;;5.43;3.73;;;12.90;99.90;;;;;;5076466;28;20430;-75
2023/09/25 06:55:57;;;;;;;4.87;3.00;;;13.00;99.90;;;;;;5056070;28;20564;-75
2023/09/25 06:58:23;;;;;;;6.73;3.40;;;13.10;99.90;;;;;;5074200;28;20190;-76
2023/09/25 07:00:50;;;;;;;3.77;3.30;;;13.30;99.90;;;;;;5074132;28;20463;-75
2023/09/25 07:03:16;;;;;;;3.83;3.27;;;13.50;99.90;;;;;;5056094;28;20208;-75
2023/09/25 07:05:42;;;;;;;3.47;3.17;;;13.60;99.90;;;;;;5072892;28;20464;-75
2023/09/25 07:08:08;;;;;;;3.03;2.73;;;13.80;99.90;;;;;;5057390;28;20174;-75
2023/09/25 07:10:34;;;;;;;4.10;3.37;;;14.00;99.90;;;;;;5079113;28;20466;-76
2023/09/25 07:13:00;;;;;;;4.20;3.50;;;14.20;99.90;;;;;;5073770;28;20401;-75
2023/09/25 07:15:26;;;;;;;12.23;3.20;;;14.40;99.90;;;;;;5073370;28;20186;-75
2023/09/25 07:17:51;;;;;;;5.63;3.00;;;14.60;99.90;;;;;;5073686;28;20441;-75
2023/09/25 07:20:17;;;;;;;4.60;3.30;;;14.70;99.90;;;;;;5073181;28;20448;-75
2023/09/25 07:22:45;;;;;;;5.50;2.43;;;14.70;99.90;;;;;;5093270;28;20268;-76
2023/09/25 07:25:10;;;;;;;6.33;3.13;;;14.90;99.90;;;;;;5090482;28;20182;-76
2023/09/25 07:27:36;;;;;;;2.97;2.67;;;15.00;99.90;;;;;;5088246;28;20410;-75
2023/09/25 07:30:05;;;;;;;8.87;2.97;;;15.10;99.90;;;;;;5085337;28;20197;-76
2023/09/25 07:32:32;;;;;;;5.87;2.87;;;15.10;99.90;;;;;;5087880;28;20176;-76
2023/09/25 07:34:58;;;;;;;3.70;2.20;;;15.10;99.90;;;;;;5088113;28;20440;-75
2023/09/25 07:37:23;;;;;;;4.70;3.00;;;15.20;99.90;;;;;;5088418;28;20910;-75
2023/09/25 07:39:49;;;;;;;3.93;2.43;;;15.30;99.90;;;;;;5082467;28;20181;-75
2023/09/25 07:42:15;;;;;;;3.00;2.80;;;15.50;99.90;;;;;;5093234;28;20200;-75
2023/09/25 07:44:42;;;;;;;3.17;2.40;;;15.70;99.90;;;;;;5086130;28;20190;-76
2023/09/25 07:47:10;;;;;;;5.33;2.53;;;15.90;99.90;;;;;;5072843;28;20393;-75
2023/09/25 07:49:40;;;;;;;14.40;2.67;;;16.00;99.90;;;;;;5072925;28;20774;-75
2023/09/25 07:52:15;;;;;;;5.40;2.40;;;16.20;99.90;;;;;;5073214;28;20463;-74
2023/09/25 07:54:48;;;;;;;2.27;1.93;;;16.40;99.90;;;;;;5056691;28;20530;-75
2023/09/25 07:57:15;;;;;;;5.70;2.63;;;16.60;99.90;;;;;;5073339;28;20400;-75
2023/09/25 07:59:44;;;;;;;3.63;2.00;;;16.60;99.90;;;;;;5059079;28;20392;-75
2023/09/25 08:02:12;;;;;;;4.13;2.30;;;16.90;99.90;;;;;;5074615;28;20401;-75
2023/09/25 08:04:37;;;;;;;2.23;1.90;;;17.10;99.90;;;;;;5056025;28;20439;-76
2023/09/25 08:07:03;;;;;;;6.57;2.10;;;17.40;99.90;;;;;;5055954;28;21006;-78
2023/09/25 08:09:30;;;;;;;2.20;1.80;;;17.80;99.90;;;;;;5056216;28;20178;-75
2023/09/25 08:11:55;;;;;;;2.43;2.00;;;18.30;99.90;;;;;;5055477;28;20531;-75
2023/09/25 08:14:21;;;;;;;2.67;1.77;;;18.90;99.90;;;;;;5073561;28;20958;-76
2023/09/25 08:16:47;;;;;;;2.10;1.83;;;19.50;99.90;;;;;;5073742;28;20154;-73
2023/09/25 08:19:13;;;;;;;3.53;2.90;;;19.90;99.90;;;;;;5073764;28;20400;-73
2023/09/25 08:21:38;;;;;;;8.47;4.77;;;20.40;99.90;;;;;;5081207;28;20607;-72
2023/09/25 08:24:04;;;;;;;5.60;2.03;;;21.00;99.90;;;;;;5084855;28;20549;-73
2023/09/25 08:26:29;;;;;;;3.00;1.57;;;21.70;99.90;;;;;;5081464;28;20170;-73
2023/09/25 08:29:00;;;;;;;1.80;1.60;;;22.50;99.90;;;;;;5072822;28;20252;-73
2023/09/25 08:31:25;;;;;;;4.07;2.07;;;23.70;99.90;;;;;;5055350;28;20209;-73
2023/09/25 08:33:51;;;;;;;2.60;2.00;;;24.80;94.10;;;;;;5054949;28;20774;-73
2023/09/25 08:36:16;;;;;;;2.60;1.87;;;25.20;83.80;;;;;;5080888;28;20703;-73
2023/09/25 08:38:42;;;;;;;2.07;1.83;;;25.50;75.00;;;;;;5073363;28;20703;-74
2023/09/25 08:41:09;;;;;;;2.13;1.67;;;26.20;71.70;;;;;;5055225;28;20249;-73
2023/09/25 08:43:35;;;;;;;3.00;1.70;;;27.20;64.50;;;;;;5072997;28;20162;-74
2023/09/25 08:46:01;;;;;;;1.83;1.67;;;27.90;59.70;;;;;;5072522;28;20498;-74
2023/09/25 08:48:27;;;;;;;1.97;1.80;;;28.20;55.60;;;;;;5072171;28;20439;-74
2023/09/25 08:50:53;;;;;;;3.20;1.80;;;28.90;54.40;;;;;;5054325;28;20189;-75
2023/09/25 08:53:19;;;;;;;4.23;1.80;;;29.50;52.20;;;;;;5054217;28;20248;-73
2023/09/25 08:55:45;;;;;;;4.93;2.10;;;29.90;50.50;;;;;;5082538;28;20836;-75
2023/09/25 08:58:11;;;;;;;5.40;2.33;;;30.70;48.70;;;;;;5058569;28;20180;-74
2023/09/25 09:00:39;;;;;;;9.03;2.30;;;31.00;46.70;;;;;;5080755;28;20186;-73
2023/09/25 09:03:05;;;;;;;2.23;1.77;;;31.60;44.00;;;;;;5057205;28;20412;-74
2023/09/25 09:05:31;;;;;;;8.60;2.00;;;31.80;42.50;;;;;;5074063;28;20519;-74
2023/09/25 09:07:59;;;;;;;2.40;1.97;;;32.00;41.40;;;;;;5081028;28;20423;-75
2023/09/25 09:10:29;;;;;;;2.70;1.40;;;32.50;41.20;;;;;;5075416;28;20172;-75
2023/09/25 09:12:56;;;;;;;2.70;1.67;;;32.80;40.30;;;;;;5077825;28;20413;-74
2023/09/25 09:15:30;;;;;;;3.57;2.20;;;33.30;38.90;;;;;;5072787;28;20511;-74
2023/09/25 09:17:56;;;;;;;4.23;1.97;;;33.60;37.90;;;;;;5061582;28;20424;-73
2023/09/25 09:20:35;;;;;;;2.53;1.97;;;34.00;37.60;;;;;;5070419;28;20446;-73
2023/09/25 09:23:01;;;;;;;3.57;1.70;;;34.40;36.80;;;;;;5077627;28;20437;-76
2023/09/25 09:25:27;;;;;;;1.93;1.63;;;35.10;36.30;;;;;;5088204;28;20432;-75
2023/09/25 09:27:53;;;;;;;3.40;3.10;;;36.10;35.10;;;;;;5083562;28;20235;-75
2023/09/25 09:30:24;;;;;;;2.23;1.90;;;37.20;34.60;;;;;;5090765;28;20404;-76
2023/09/25 09:32:53;;;;;;;2.67;2.00;;;37.60;32.80;;;;;;5063628;28;20174;-74
2023/09/25 09:35:25;;;;;;;3.77;2.40;;;37.90;32.10;;;;;;5091022;28;20403;-75
2023/09/25 09:37:57;;;;;;;2.30;2.10;;;37.80;30.80;;;;;;5075272;28;20419;-74
2023/09/25 09:40:24;;;;;;;4.70;2.50;;;37.90;30.80;;;;;;5079878;28;20866;-74
2023/09/25 09:42:53;;;;;;;3.03;2.53;;;38.20;30.40;;;;;;5077736;28;20463;-74
2023/09/25 09:45:20;;;;;;;4.63;2.30;;;38.80;30.10;;;;;;5077389;28;20957;-74
2023/09/25 09:47:48;;;;;;;1.57;1.47;;;39.30;29.40;;;;;;5077891;28;20416;-74
2023/09/25 09:50:19;;;;;;;2.67;2.47;;;39.60;29.50;;;;;;5077729;28;20408;-74
2023/09/25 09:52:45;;;;;;;2.90;2.20;;;39.80;28.70;;;;;;5077894;28;20408;-74
2023/09/25 09:55:13;;;;;;;2.80;1.80;;;40.20;27.70;;;;;;5077895;28;20470;-74
2023/09/25 09:57:39;;;;;;;3.23;2.93;;;40.30;27.30;;;;;;5078104;28;20411;-74
2023/09/25 10:00:07;;;;;;;2.77;2.57;;;40.40;27.70;;;;;;5078119;28;20427;-74
2023/09/25 10:02:33;;;;;;;2.50;2.30;;;40.10;27.40;;;;;;5078020;28;20431;-73
2023/09/25 10:05:00;;;;;;;3.63;2.40;;;40.60;27.30;;;;;;5077713;28;20535;-73
2023/09/25 10:07:26;;;;;;;2.67;2.07;;;41.20;27.00;;;;;;5078846;28;20398;-73
2023/09/25 10:09:56;;;;;;;2.33;1.97;;;42.20;26.70;;;;;;5079683;28;20522;-74
2023/09/25 10:12:50;;;;;;;2.30;2.03;;;42.70;26.10;;;;;;5077579;28;20992;-75
2023/09/25 10:15:23;;;;;;;2.97;2.10;;;43.50;25.40;;;;;;5077294;28;20439;-74
2023/09/25 10:17:48;;;;;;;2.00;1.90;;;43.60;24.60;;;;;;5059690;28;20390;-75
2023/09/25 10:20:40;;;;;;;2.50;2.27;;;44.00;24.30;;;;;;5086388;28;20456;-73
2023/09/25 10:23:06;;;;;;;2.10;1.90;;;44.30;24.00;;;;;;5072952;28;20660;-73
2023/09/25 10:25:54;;;;;;;3.50;1.90;;;44.60;24.00;;;;;;5097603;28;20397;-73
2023/09/25 10:28:40;;;;;;;2.23;2.00;;;44.40;23.20;;;;;;5069696;28;20173;-73
2023/09/25 10:31:19;;;;;;;5.10;1.87;;;44.40;23.20;;;;;;5076788;28;20551;-74
2023/09/25 10:34:00;;;;;;;3.10;2.50;;;44.80;23.00;;;;;;5061788;28;20765;-72
2023/09/25 10:36:40;;;;;;;3.10;1.93;;;44.70;22.80;;;;;;5079945;28;20414;-73
2023/09/25 10:39:08;;;;;;;2.60;2.20;;;44.80;22.60;;;;;;5064052;28;20438;-73
2023/09/25 10:41:33;;;;;;;2.63;2.00;;;44.10;22.60;;;;;;5078847;28;20418;-73
2023/09/25 10:44:00;;;;;;;2.97;2.07;;;44.10;22.70;;;;;;5074042;28;20451;-73
2023/09/25 10:46:25;;;;;;;2.70;2.40;;;43.80;22.90;;;;;;5055874;28;20612;-73
2023/09/25 10:48:53;;;;;;;1.73;1.63;;;44.40;23.50;;;;;;5063472;28;20498;-73
2023/09/25 10:51:20;;;;;;;2.10;1.90;;;45.50;24.30;;;;;;5083273;28;20772;-73
2023/09/25 10:53:46;;;;;;;1.80;1.70;;;46.40;22.90;;;;;;5073952;28;20436;-74
2023/09/25 10:56:11;;;;;;;2.40;2.20;;;46.70;22.40;;;;;;5073881;28;20472;-74
2023/09/25 10:58:37;;;;;;;2.20;2.10;;;46.90;21.90;;;;;;5074138;28;20166;-73
2023/09/25 11:01:04;;;;;;;3.53;2.30;;;46.60;21.10;;;;;;5073808;28;20656;-76
2023/09/25 11:03:31;;;;;;;2.67;2.20;;;46.50;21.50;;;;;;5056035;28;20252;-72
2023/09/25 11:05:57;;;;;;;1.80;1.70;;;46.40;21.70;;;;;;5073680;28;20432;-76
2023/09/25 11:08:26;;;;;;;2.03;1.90;;;46.00;21.50;;;;;;5073974;28;20893;-76
2023/09/25 11:10:51;;;;;;;1.97;1.70;;;46.50;22.90;;;;;;5073763;28;20447;-74
2023/09/25 11:13:17;;;;;;;2.30;1.97;;;47.40;22.20;;;;;;5073883;28;20453;-73
2023/09/25 11:15:44;;;;;;;2.93;2.30;;;46.60;20.30;;;;;;5073414;28;20194;-73
2023/09/25 11:18:10;;;;;;;2.37;2.17;;;46.00;21.00;;;;;;5073702;28;20228;-75
2023/09/25 11:20:37;;;;;;;2.57;2.37;;;45.90;21.20;;;;;;5073568;28;20407;-73
2023/09/25 11:23:14;;;;;;;2.27;2.07;;;44.90;20.80;;;;;;5073559;28;20867;-73
2023/09/25 11:25:43;;;;;;;2.27;2.17;;;44.30;21.60;;;;;;5073443;28;20403;-74
2023/09/25 11:28:12;;;;;;;3.20;2.00;;;44.10;22.20;;;;;;5074139;28;20907;-75
2023/09/25 11:30:38;;;;;;;2.10;1.90;;;44.50;22.40;;;;;;5055511;28;20437;-74
2023/09/25 11:33:08;;;;;;;2.33;2.13;;;44.00;21.80;;;;;;5073424;28;20931;-74
2023/09/25 11:35:37;;;;;;;2.80;2.00;;;44.30;22.00;;;;;;5073184;28;20420;-74
2023/09/25 11:38:12;;;;;;;1.93;1.70;;;45.10;22.90;;;;;;5073391;28;20433;-73
2023/09/25 11:40:38;;;;;;;1.90;1.80;;;45.80;21.70;;;;;;5072867;28;20412;-74
2023/09/25 11:43:05;;;;;;;2.80;1.90;;;46.30;21.30;;;;;;5073171;28;20408;-73
2023/09/25 11:45:31;;;;;;;2.27;2.10;;;47.10;21.00;;;;;;5072796;28;20967;-73
2023/09/25 11:47:57;;;;;;;3.60;2.40;;;48.20;21.20;;;;;;5073157;28;20387;-73
2023/09/25 11:50:22;;;;;;;2.03;1.80;;;48.20;20.00;;;;;;5073048;28;20383;-73
2023/09/25 11:52:48;;;;;;;2.13;2.03;;;48.30;20.50;;;;;;5072895;28;20170;-74
2023/09/25 11:55:14;;;;;;;2.77;2.57;;;48.70;20.50;;;;;;5072783;28;20193;-75
2023/09/25 11:57:42;;;;;;;2.30;2.10;;;49.80;20.90;;;;;;5073032;28;20162;-74
2023/09/25 12:00:18;;;;;;;2.20;2.00;;;50.50;19.30;;;;;;5072888;28;20411;-74
2023/09/25 12:02:46;;;;;;;2.90;2.37;;;51.10;20.40;;;;;;5072849;28;20918;-72
2023/09/25 12:05:12;;;;;;;2.13;2.00;;;51.30;19.20;;;;;;5072504;28;20806;-73
2023/09/25 12:07:38;;;;;;;2.20;2.10;;;51.20;18.80;;;;;;5072672;28;20387;-73
2023/09/25 12:10:05;;;;;;;3.20;2.90;;;50.60;18.80;;;;;;5072699;28;20454;-73
2023/09/25 12:12:35;;;;;;;2.40;2.20;;;51.00;19.40;;;;;;5072611;28;20189;-74
2023/09/25 12:15:03;;;;;;;2.10;2.00;;;51.60;20.40;;;;;;5072376;28;20395;-74
2023/09/25 12:17:30;;;;;;;2.67;2.47;;;52.50;19.90;;;;;;5054543;28;20387;-76
2023/09/25 12:20:06;;;;;;;3.63;2.50;;;53.30;19.90;;;;;;5072089;28;20817;-73
2023/09/25 12:22:32;;;;;;;2.77;2.53;;;54.00;17.90;;;;;;5084927;28;20386;-73
2023/09/25 12:24:57;;;;;;;3.00;2.80;;;54.40;17.90;;;;;;5080194;28;20420;-73
2023/09/25 12:27:23;;;;;;;2.63;2.43;;;54.30;17.20;;;;;;5071940;28;20181;-73
2023/09/25 12:29:49;;;;;;;3.30;2.30;;;54.20;16.90;;;;;;5054132;28;20174;-74
2023/09/25 12:32:14;;;;;;;2.63;2.20;;;53.70;17.40;;;;;;5088777;28;20204;-74
2023/09/25 12:34:40;;;;;;;3.07;2.80;;;53.90;18.00;;;;;;5072114;28;20233;-73
2023/09/25 12:37:06;;;;;;;2.67;2.47;;;53.20;16.90;;;;;;5071866;28;20197;-74
2023/09/25 12:39:33;;;;;;;2.43;2.33;;;53.20;17.70;;;;;;5072295;28;20159;-74
2023/09/25 12:41:59;;;;;;;2.60;2.40;;;53.40;17.90;;;;;;5072166;28;20561;-73
2023/09/25 12:44:24;;;;;;;2.87;2.67;;;52.60;16.80;;;;;;5071976;28;20910;-73
2023/09/25 12:46:52;;;;;;;2.17;2.00;;;51.70;17.60;;;;;;5071990;28;20174;-73